sensor_id;sensor_type;location;lat;lon;timestamp;P1;durP1;ratioP1;P2;durP2;ratioP2
15295;SDS011;7749;49.964;7.890;2023-06-14T00:02:25;5.57;;;4.20;;
15295;SDS011;7749;49.964;7.890;2023-06-14T00:04:53;5.88;;;4.22;;
15295;SDS011;7749;49.964;7.890;2023-06-14T00:07:37;6.03;;;4.38;;
15295;SDS011;7749;49.964;7.890;2023-06-14T00:18:34;4.70;;;3.87;;
15295;SDS011;7749;49.964;7.890;2023-06-14T00:21:02;4.67;;;4.23;;
15295;SDS011;7749;49.964;7.890;2023-06-14T00:29:34;4.80;;;4.40;;
15295;SDS011;7749;49.964;7.890;2023-06-14T00:32:01;8.23;;;4.60;;
15295;SDS011;7749;49.964;7.890;2023-06-14T00:34:29;5.70;;;4.73;;
15295;SDS011;7749;49.964;7.890;2023-06-14T00:36:57;5.77;;;4.40;;
15295;SDS011;7749;49.964;7.890;2023-06-14T00:39:24;5.70;;;4.40;;
15295;SDS011;7749;49.964;7.890;2023-06-14T00:41:52;4.67;;;3.73;;
15295;SDS011;7749;49.964;7.890;2023-06-14T00:44:20;4.90;;;4.50;;
15295;SDS011;7749;49.964;7.890;2023-06-14T00:46:48;4.93;;;4.53;;
15295;SDS011;7749;49.964;7.890;2023-06-14T00:49:17;7.17;;;4.87;;
15295;SDS011;7749;49.964;7.890;2023-06-14T00:51:46;4.33;;;3.93;;
15295;SDS011;7749;49.964;7.890;2023-06-14T00:54:14;4.83;;;4.00;;
15295;SDS011;7749;49.964;7.890;2023-06-14T00:56:41;5.97;;;4.80;;
15295;SDS011;7749;49.964;7.890;2023-06-14T00:59:12;5.80;;;4.80;;
15295;SDS011;7749;49.964;7.890;2023-06-14T01:01:45;6.10;;;4.37;;
15295;SDS011;7749;49.964;7.890;2023-06-14T01:04:13;7.80;;;4.87;;
15295;SDS011;7749;49.964;7.890;2023-06-14T01:09:47;5.10;;;4.30;;
15295;SDS011;7749;49.964;7.890;2023-06-14T01:12:35;4.87;;;4.47;;
15295;SDS011;7749;49.964;7.890;2023-06-14T01:15:15;5.60;;;4.60;;
15295;SDS011;7749;49.964;7.890;2023-06-14T01:17:44;6.00;;;4.37;;
15295;SDS011;7749;49.964;7.890;2023-06-14T01:20:13;5.23;;;4.73;;
15295;SDS011;7749;49.964;7.890;2023-06-14T01:22:50;5.17;;;4.67;;
15295;SDS011;7749;49.964;7.890;2023-06-14T01:25:21;5.23;;;4.40;;
15295;SDS011;7749;49.964;7.890;2023-06-14T01:27:50;5.17;;;4.50;;
15295;SDS011;7749;49.964;7.890;2023-06-14T01:30:29;5.10;;;4.60;;
15295;SDS011;7749;49.964;7.890;2023-06-14T01:33:00;5.23;;;4.40;;
15295;SDS011;7749;49.964;7.890;2023-06-14T01:35:28;7.87;;;4.67;;
15295;SDS011;7749;49.964;7.890;2023-06-14T01:37:56;5.23;;;4.73;;
15295;SDS011;7749;49.964;7.890;2023-06-14T01:40:26;4.73;;;4.30;;
15295;SDS011;7749;49.964;7.890;2023-06-14T01:42:55;6.30;;;4.90;;
15295;SDS011;7749;49.964;7.890;2023-06-14T01:45:22;5.13;;;4.63;;
15295;SDS011;7749;49.964;7.890;2023-06-14T01:47:51;5.07;;;4.57;;
15295;SDS011;7749;49.964;7.890;2023-06-14T01:50:19;5.50;;;4.60;;
15295;SDS011;7749;49.964;7.890;2023-06-14T01:52:47;5.77;;;4.93;;
15295;SDS011;7749;49.964;7.890;2023-06-14T01:55:15;5.30;;;4.80;;
15295;SDS011;7749;49.964;7.890;2023-06-14T01:57:44;5.27;;;4.70;;
15295;SDS011;7749;49.964;7.890;2023-06-14T02:00:13;5.63;;;4.90;;
15295;SDS011;7749;49.964;7.890;2023-06-14T02:02:42;8.17;;;4.73;;
15295;SDS011;7749;49.964;7.890;2023-06-14T02:05:09;5.50;;;4.83;;
15295;SDS011;7749;49.964;7.890;2023-06-14T02:07:37;5.70;;;4.57;;
15295;SDS011;7749;49.964;7.890;2023-06-14T02:10:05;5.90;;;4.43;;
15295;SDS011;7749;49.964;7.890;2023-06-14T02:12:33;4.80;;;4.40;;
15295;SDS011;7749;49.964;7.890;2023-06-14T02:15:00;6.60;;;4.90;;
15295;SDS011;7749;49.964;7.890;2023-06-14T02:17:28;5.43;;;4.70;;
15295;SDS011;7749;49.964;7.890;2023-06-14T02:19:55;9.10;;;5.20;;
15295;SDS011;7749;49.964;7.890;2023-06-14T02:22:24;5.03;;;4.53;;
15295;SDS011;7749;49.964;7.890;2023-06-14T02:24:51;6.93;;;4.90;;
15295;SDS011;7749;49.964;7.890;2023-06-14T02:27:28;5.90;;;4.53;;
15295;SDS011;7749;49.964;7.890;2023-06-14T02:29:55;5.83;;;4.60;;
15295;SDS011;7749;49.964;7.890;2023-06-14T02:32:23;5.60;;;4.20;;
15295;SDS011;7749;49.964;7.890;2023-06-14T02:34:50;5.87;;;4.60;;
15295;SDS011;7749;49.964;7.890;2023-06-14T02:37:18;5.50;;;5.00;;
15295;SDS011;7749;49.964;7.890;2023-06-14T02:39:45;7.30;;;4.53;;
15295;SDS011;7749;49.964;7.890;2023-06-14T02:42:13;6.00;;;5.30;;
15295;SDS011;7749;49.964;7.890;2023-06-14T02:44:40;5.93;;;4.60;;
15295;SDS011;7749;49.964;7.890;2023-06-14T02:47:08;5.77;;;5.07;;
15295;SDS011;7749;49.964;7.890;2023-06-14T02:49:36;6.77;;;5.27;;
15295;SDS011;7749;49.964;7.890;2023-06-14T02:52:03;6.10;;;5.50;;
15295;SDS011;7749;49.964;7.890;2023-06-14T02:54:31;6.10;;;5.40;;
15295;SDS011;7749;49.964;7.890;2023-06-14T02:56:59;5.33;;;4.83;;
15295;SDS011;7749;49.964;7.890;2023-06-14T02:59:27;7.63;;;5.50;;
15295;SDS011;7749;49.964;7.890;2023-06-14T03:01:54;6.67;;;4.97;;
15295;SDS011;7749;49.964;7.890;2023-06-14T03:04:22;5.33;;;4.83;;
15295;SDS011;7749;49.964;7.890;2023-06-14T03:06:49;6.27;;;5.17;;
15295;SDS011;7749;49.964;7.890;2023-06-14T03:09:17;5.93;;;5.40;;
15295;SDS011;7749;49.964;7.890;2023-06-14T03:11:45;6.17;;;5.53;;
15295;SDS011;7749;49.964;7.890;2023-06-14T03:14:13;6.50;;;5.07;;
15295;SDS011;7749;49.964;7.890;2023-06-14T03:16:41;6.97;;;4.90;;
15295;SDS011;7749;49.964;7.890;2023-06-14T03:19:08;6.33;;;5.30;;
15295;SDS011;7749;49.964;7.890;2023-06-14T03:21:36;5.77;;;5.27;;
15295;SDS011;7749;49.964;7.890;2023-06-14T03:24:04;6.10;;;5.50;;
15295;SDS011;7749;49.964;7.890;2023-06-14T03:26:31;6.27;;;5.50;;
15295;SDS011;7749;49.964;7.890;2023-06-14T03:29:00;5.90;;;5.30;;
15295;SDS011;7749;49.964;7.890;2023-06-14T03:31:31;5.87;;;5.23;;
15295;SDS011;7749;49.964;7.890;2023-06-14T03:34:00;5.67;;;5.17;;
15295;SDS011;7749;49.964;7.890;2023-06-14T03:36:28;5.87;;;5.37;;
15295;SDS011;7749;49.964;7.890;2023-06-14T03:38:56;6.23;;;5.63;;
15295;SDS011;7749;49.964;7.890;2023-06-14T03:41:26;7.77;;;5.57;;
15295;SDS011;7749;49.964;7.890;2023-06-14T03:43:53;7.40;;;5.63;;
15295;SDS011;7749;49.964;7.890;2023-06-14T03:46:21;7.07;;;5.03;;
15295;SDS011;7749;49.964;7.890;2023-06-14T03:48:48;7.10;;;5.27;;
15295;SDS011;7749;49.964;7.890;2023-06-14T03:51:16;6.27;;;5.43;;
15295;SDS011;7749;49.964;7.890;2023-06-14T03:53:44;7.53;;;5.20;;
15295;SDS011;7749;49.964;7.890;2023-06-14T03:56:31;6.40;;;5.00;;
15295;SDS011;7749;49.964;7.890;2023-06-14T03:58:59;5.60;;;5.10;;
15295;SDS011;7749;49.964;7.890;2023-06-14T04:01:26;5.90;;;5.23;;
15295;SDS011;7749;49.964;7.890;2023-06-14T04:03:56;7.23;;;5.00;;
15295;SDS011;7749;49.964;7.890;2023-06-14T04:06:25;6.73;;;5.57;;
15295;SDS011;7749;49.964;7.890;2023-06-14T04:08:59;5.80;;;5.20;;
15295;SDS011;7749;49.964;7.890;2023-06-14T04:11:31;6.40;;;4.90;;
15295;SDS011;7749;49.964;7.890;2023-06-14T04:13:58;5.87;;;5.20;;
15295;SDS011;7749;49.964;7.890;2023-06-14T04:16:26;6.77;;;5.93;;
15295;SDS011;7749;49.964;7.890;2023-06-14T04:18:54;6.73;;;5.37;;
15295;SDS011;7749;49.964;7.890;2023-06-14T04:21:22;6.13;;;5.60;;
15295;SDS011;7749;49.964;7.890;2023-06-14T04:23:50;6.23;;;5.10;;
15295;SDS011;7749;49.964;7.890;2023-06-14T04:26:20;6.80;;;5.33;;
15295;SDS011;7749;49.964;7.890;2023-06-14T04:28:53;7.80;;;5.40;;
15295;SDS011;7749;49.964;7.890;2023-06-14T04:31:23;6.17;;;5.57;;
15295;SDS011;7749;49.964;7.890;2023-06-14T04:33:52;6.13;;;5.33;;
15295;SDS011;7749;49.964;7.890;2023-06-14T04:36:20;6.13;;;5.37;;
15295;SDS011;7749;49.964;7.890;2023-06-14T04:38:48;6.83;;;5.50;;
15295;SDS011;7749;49.964;7.890;2023-06-14T04:41:16;7.30;;;5.50;;
15295;SDS011;7749;49.964;7.890;2023-06-14T04:43:45;6.70;;;5.20;;
15295;SDS011;7749;49.964;7.890;2023-06-14T04:46:15;6.00;;;5.40;;
15295;SDS011;7749;49.964;7.890;2023-06-14T04:48:44;5.67;;;5.17;;
15295;SDS011;7749;49.964;7.890;2023-06-14T04:51:12;6.67;;;5.33;;
15295;SDS011;7749;49.964;7.890;2023-06-14T04:53:40;6.90;;;5.47;;
15295;SDS011;7749;49.964;7.890;2023-06-14T04:56:07;6.00;;;5.20;;
15295;SDS011;7749;49.964;7.890;2023-06-14T04:58:35;5.80;;;5.30;;
15295;SDS011;7749;49.964;7.890;2023-06-14T05:01:03;8.07;;;5.30;;
15295;SDS011;7749;49.964;7.890;2023-06-14T05:03:31;6.70;;;5.47;;
15295;SDS011;7749;49.964;7.890;2023-06-14T05:05:58;7.67;;;5.60;;
15295;SDS011;7749;49.964;7.890;2023-06-14T05:08:27;6.33;;;5.20;;
15295;SDS011;7749;49.964;7.890;2023-06-14T05:10:54;7.13;;;5.00;;
15295;SDS011;7749;49.964;7.890;2023-06-14T05:13:22;6.47;;;5.40;;
15295;SDS011;7749;49.964;7.890;2023-06-14T05:15:50;6.17;;;5.03;;
15295;SDS011;7749;49.964;7.890;2023-06-14T05:18:17;5.50;;;5.00;;
15295;SDS011;7749;49.964;7.890;2023-06-14T05:20:45;5.37;;;4.97;;
15295;SDS011;7749;49.964;7.890;2023-06-14T05:23:13;6.90;;;5.23;;
15295;SDS011;7749;49.964;7.890;2023-06-14T05:25:43;5.47;;;4.80;;
15295;SDS011;7749;49.964;7.890;2023-06-14T05:28:12;6.80;;;5.47;;
15295;SDS011;7749;49.964;7.890;2023-06-14T05:30:40;5.53;;;5.03;;
15295;SDS011;7749;49.964;7.890;2023-06-14T05:33:08;6.90;;;5.10;;
15295;SDS011;7749;49.964;7.890;2023-06-14T05:35:35;5.90;;;5.23;;
15295;SDS011;7749;49.964;7.890;2023-06-14T05:38:04;6.23;;;5.10;;
15295;SDS011;7749;49.964;7.890;2023-06-14T05:40:34;6.77;;;5.20;;
15295;SDS011;7749;49.964;7.890;2023-06-14T05:43:02;6.97;;;4.63;;
15295;SDS011;7749;49.964;7.890;2023-06-14T05:45:29;5.30;;;4.80;;
15295;SDS011;7749;49.964;7.890;2023-06-14T05:47:57;5.33;;;4.83;;
15295;SDS011;7749;49.964;7.890;2023-06-14T05:50:25;6.83;;;5.07;;
15295;SDS011;7749;49.964;7.890;2023-06-14T05:52:53;6.93;;;5.60;;
15295;SDS011;7749;49.964;7.890;2023-06-14T05:55:21;8.17;;;5.10;;
15295;SDS011;7749;49.964;7.890;2023-06-14T05:57:48;8.43;;;5.10;;
15295;SDS011;7749;49.964;7.890;2023-06-14T06:00:16;5.50;;;5.00;;
15295;SDS011;7749;49.964;7.890;2023-06-14T06:02:44;5.07;;;4.60;;
15295;SDS011;7749;49.964;7.890;2023-06-14T06:05:13;7.53;;;4.57;;
15295;SDS011;7749;49.964;7.890;2023-06-14T06:07:43;4.80;;;4.30;;
15295;SDS011;7749;49.964;7.890;2023-06-14T06:10:13;9.00;;;4.63;;
15295;SDS011;7749;49.964;7.890;2023-06-14T06:12:41;6.00;;;4.43;;
15295;SDS011;7749;49.964;7.890;2023-06-14T06:15:09;12.57;;;4.90;;
15295;SDS011;7749;49.964;7.890;2023-06-14T06:17:39;7.63;;;5.20;;
15295;SDS011;7749;49.964;7.890;2023-06-14T06:20:22;5.83;;;4.67;;
15295;SDS011;7749;49.964;7.890;2023-06-14T06:22:57;7.45;;;4.18;;
15295;SDS011;7749;49.964;7.890;2023-06-14T06:25:25;7.07;;;4.63;;
15295;SDS011;7749;49.964;7.890;2023-06-14T06:27:54;5.43;;;4.10;;
15295;SDS011;7749;49.964;7.890;2023-06-14T06:30:25;6.23;;;4.10;;
15295;SDS011;7749;49.964;7.890;2023-06-14T06:32:52;8.75;;;4.43;;
15295;SDS011;7749;49.964;7.890;2023-06-14T06:35:20;6.45;;;4.78;;
15295;SDS011;7749;49.964;7.890;2023-06-14T06:37:48;7.03;;;4.47;;
15295;SDS011;7749;49.964;7.890;2023-06-14T06:40:15;6.93;;;4.70;;
15295;SDS011;7749;49.964;7.890;2023-06-14T06:42:43;5.72;;;4.20;;
15295;SDS011;7749;49.964;7.890;2023-06-14T06:45:11;7.13;;;4.75;;
15295;SDS011;7749;49.964;7.890;2023-06-14T06:47:38;13.23;;;5.07;;
15295;SDS011;7749;49.964;7.890;2023-06-14T06:50:06;5.03;;;4.07;;
15295;SDS011;7749;49.964;7.890;2023-06-14T06:52:34;5.78;;;4.18;;
15295;SDS011;7749;49.964;7.890;2023-06-14T06:55:02;6.28;;;3.70;;
15295;SDS011;7749;49.964;7.890;2023-06-14T06:57:30;5.80;;;4.07;;
15295;SDS011;7749;49.964;7.890;2023-06-14T06:59:57;4.53;;;4.03;;
15295;SDS011;7749;49.964;7.890;2023-06-14T07:02:25;5.07;;;3.83;;
15295;SDS011;7749;49.964;7.890;2023-06-14T07:04:52;9.77;;;4.85;;
15295;SDS011;7749;49.964;7.890;2023-06-14T07:07:20;4.50;;;4.00;;
15295;SDS011;7749;49.964;7.890;2023-06-14T07:09:47;6.35;;;3.92;;
15295;SDS011;7749;49.964;7.890;2023-06-14T07:12:15;5.97;;;4.00;;
15295;SDS011;7749;49.964;7.890;2023-06-14T07:14:42;6.97;;;4.20;;
15295;SDS011;7749;49.964;7.890;2023-06-14T07:17:10;5.10;;;3.83;;
15295;SDS011;7749;49.964;7.890;2023-06-14T07:19:37;13.90;;;4.15;;
15295;SDS011;7749;49.964;7.890;2023-06-14T07:22:05;5.35;;;3.40;;
15295;SDS011;7749;49.964;7.890;2023-06-14T07:24:33;5.43;;;3.45;;
15295;SDS011;7749;49.964;7.890;2023-06-14T07:27:03;3.85;;;2.80;;
15295;SDS011;7749;49.964;7.890;2023-06-14T07:29:31;3.00;;;2.50;;
15295;SDS011;7749;49.964;7.890;2023-06-14T07:31:58;5.20;;;3.28;;
15295;SDS011;7749;49.964;7.890;2023-06-14T07:34:26;4.00;;;3.10;;
15295;SDS011;7749;49.964;7.890;2023-06-14T07:36:54;3.08;;;2.80;;
15295;SDS011;7749;49.964;7.890;2023-06-14T07:39:21;6.22;;;2.80;;
15295;SDS011;7749;49.964;7.890;2023-06-14T07:41:49;8.82;;;3.67;;
15295;SDS011;7749;49.964;7.890;2023-06-14T07:44:17;5.93;;;3.00;;
15295;SDS011;7749;49.964;7.890;2023-06-14T07:46:44;2.85;;;2.60;;
15295;SDS011;7749;49.964;7.890;2023-06-14T07:49:13;4.40;;;2.95;;
15295;SDS011;7749;49.964;7.890;2023-06-14T07:51:40;3.20;;;2.90;;
15295;SDS011;7749;49.964;7.890;2023-06-14T07:54:08;5.47;;;2.85;;
15295;SDS011;7749;49.964;7.890;2023-06-14T07:56:36;3.90;;;2.60;;
15295;SDS011;7749;49.964;7.890;2023-06-14T07:59:03;4.18;;;2.45;;
15295;SDS011;7749;49.964;7.890;2023-06-14T08:01:32;4.03;;;2.65;;
15295;SDS011;7749;49.964;7.890;2023-06-14T08:04:00;7.35;;;2.60;;
15295;SDS011;7749;49.964;7.890;2023-06-14T08:06:28;6.03;;;2.70;;
15295;SDS011;7749;49.964;7.890;2023-06-14T08:08:57;5.50;;;2.83;;
15295;SDS011;7749;49.964;7.890;2023-06-14T08:11:25;3.17;;;2.63;;
15295;SDS011;7749;49.964;7.890;2023-06-14T08:13:52;5.13;;;2.67;;
15295;SDS011;7749;49.964;7.890;2023-06-14T08:16:19;2.40;;;2.10;;
15295;SDS011;7749;49.964;7.890;2023-06-14T08:18:47;4.45;;;2.60;;
15295;SDS011;7749;49.964;7.890;2023-06-14T08:21:15;6.88;;;3.00;;
15295;SDS011;7749;49.964;7.890;2023-06-14T08:23:42;3.75;;;2.53;;
15295;SDS011;7749;49.964;7.890;2023-06-14T08:26:10;4.60;;;2.92;;
15295;SDS011;7749;49.964;7.890;2023-06-14T08:28:38;3.72;;;2.45;;
15295;SDS011;7749;49.964;7.890;2023-06-14T08:31:05;3.55;;;2.63;;
15295;SDS011;7749;49.964;7.890;2023-06-14T08:33:33;5.82;;;2.67;;
15295;SDS011;7749;49.964;7.890;2023-06-14T08:36:01;5.82;;;2.50;;
15295;SDS011;7749;49.964;7.890;2023-06-14T08:38:29;5.47;;;2.70;;
15295;SDS011;7749;49.964;7.890;2023-06-14T08:40:57;4.00;;;2.40;;
15295;SDS011;7749;49.964;7.890;2023-06-14T08:43:25;5.35;;;2.50;;
15295;SDS011;7749;49.964;7.890;2023-06-14T08:45:53;4.70;;;2.40;;
15295;SDS011;7749;49.964;7.890;2023-06-14T08:48:30;3.08;;;2.30;;
15295;SDS011;7749;49.964;7.890;2023-06-14T08:51:01;2.90;;;2.30;;
15295;SDS011;7749;49.964;7.890;2023-06-14T08:53:31;3.72;;;2.83;;
15295;SDS011;7749;49.964;7.890;2023-06-14T08:56:04;4.75;;;2.33;;
15295;SDS011;7749;49.964;7.890;2023-06-14T08:58:34;2.53;;;2.33;;
15295;SDS011;7749;49.964;7.890;2023-06-14T09:01:03;2.47;;;2.20;;
15295;SDS011;7749;49.964;7.890;2023-06-14T09:03:32;3.25;;;2.25;;
15295;SDS011;7749;49.964;7.890;2023-06-14T09:06:00;8.10;;;2.22;;
15295;SDS011;7749;49.964;7.890;2023-06-14T09:08:28;3.67;;;2.22;;
15295;SDS011;7749;49.964;7.890;2023-06-14T09:10:57;4.22;;;2.55;;
15295;SDS011;7749;49.964;7.890;2023-06-14T09:13:26;3.53;;;2.30;;
15295;SDS011;7749;49.964;7.890;2023-06-14T09:15:57;5.03;;;2.58;;
15295;SDS011;7749;49.964;7.890;2023-06-14T09:18:34;2.20;;;2.00;;
15295;SDS011;7749;49.964;7.890;2023-06-14T09:21:03;3.38;;;1.92;;
15295;SDS011;7749;49.964;7.890;2023-06-14T09:23:38;2.90;;;2.45;;
15295;SDS011;7749;49.964;7.890;2023-06-14T09:28:36;4.05;;;2.03;;
15295;SDS011;7749;49.964;7.890;2023-06-14T09:31:08;3.40;;;2.00;;
15295;SDS011;7749;49.964;7.890;2023-06-14T09:33:36;3.15;;;2.13;;
15295;SDS011;7749;49.964;7.890;2023-06-14T09:36:04;4.53;;;2.25;;
15295;SDS011;7749;49.964;7.890;2023-06-14T09:38:39;2.72;;;2.17;;
15295;SDS011;7749;49.964;7.890;2023-06-14T09:41:07;4.35;;;2.10;;
15295;SDS011;7749;49.964;7.890;2023-06-14T09:43:35;2.45;;;1.70;;
15295;SDS011;7749;49.964;7.890;2023-06-14T09:46:05;4.72;;;2.38;;
15295;SDS011;7749;49.964;7.890;2023-06-14T09:48:34;4.50;;;1.90;;
15295;SDS011;7749;49.964;7.890;2023-06-14T09:51:02;2.92;;;2.28;;
15295;SDS011;7749;49.964;7.890;2023-06-14T09:53:33;5.10;;;2.10;;
15295;SDS011;7749;49.964;7.890;2023-06-14T09:56:04;4.70;;;1.90;;
15295;SDS011;7749;49.964;7.890;2023-06-14T09:58:32;2.90;;;1.92;;
15295;SDS011;7749;49.964;7.890;2023-06-14T10:01:05;3.95;;;2.05;;
15295;SDS011;7749;49.964;7.890;2023-06-14T10:03:36;2.58;;;1.70;;
15295;SDS011;7749;49.964;7.890;2023-06-14T10:06:26;4.43;;;1.85;;
15295;SDS011;7749;49.964;7.890;2023-06-14T10:08:57;2.78;;;2.08;;
15295;SDS011;7749;49.964;7.890;2023-06-14T10:11:28;3.88;;;2.15;;
15295;SDS011;7749;49.964;7.890;2023-06-14T10:13:56;3.65;;;2.15;;
15295;SDS011;7749;49.964;7.890;2023-06-14T10:16:35;2.67;;;2.08;;
15295;SDS011;7749;49.964;7.890;2023-06-14T10:19:29;5.03;;;2.10;;
15295;SDS011;7749;49.964;7.890;2023-06-14T10:22:12;2.05;;;1.95;;
15295;SDS011;7749;49.964;7.890;2023-06-14T10:24:45;2.55;;;2.00;;
15295;SDS011;7749;49.964;7.890;2023-06-14T10:27:15;2.50;;;1.83;;
15295;SDS011;7749;49.964;7.890;2023-06-14T10:32:21;4.30;;;1.70;;
15295;SDS011;7749;49.964;7.890;2023-06-14T10:34:56;2.53;;;1.50;;
15295;SDS011;7749;49.964;7.890;2023-06-14T10:37:36;2.92;;;1.90;;
15295;SDS011;7749;49.964;7.890;2023-06-14T10:40:03;1.95;;;1.75;;
15295;SDS011;7749;49.964;7.890;2023-06-14T10:42:35;2.13;;;1.58;;
15295;SDS011;7749;49.964;7.890;2023-06-14T10:45:03;2.80;;;1.70;;
15295;SDS011;7749;49.964;7.890;2023-06-14T10:47:32;3.05;;;1.52;;
15295;SDS011;7749;49.964;7.890;2023-06-14T10:50:05;3.30;;;1.67;;
15295;SDS011;7749;49.964;7.890;2023-06-14T10:52:40;2.70;;;1.75;;
15295;SDS011;7749;49.964;7.890;2023-06-14T10:55:15;2.72;;;1.75;;
15295;SDS011;7749;49.964;7.890;2023-06-14T11:00:25;2.10;;;1.63;;
15295;SDS011;7749;49.964;7.890;2023-06-14T11:11:09;1.77;;;1.67;;
15295;SDS011;7749;49.964;7.890;2023-06-14T11:13:42;1.45;;;1.35;;
15295;SDS011;7749;49.964;7.890;2023-06-14T11:16:13;1.70;;;1.60;;
15295;SDS011;7749;49.964;7.890;2023-06-14T11:18:42;2.78;;;1.52;;
15295;SDS011;7749;49.964;7.890;2023-06-14T11:21:15;2.42;;;1.77;;
15295;SDS011;7749;49.964;7.890;2023-06-14T11:23:50;2.65;;;1.70;;
15295;SDS011;7749;49.964;7.890;2023-06-14T11:26:28;1.80;;;1.70;;
15295;SDS011;7749;49.964;7.890;2023-06-14T11:28:57;1.70;;;1.60;;
15295;SDS011;7749;49.964;7.890;2023-06-14T11:31:26;6.32;;;1.90;;
15295;SDS011;7749;49.964;7.890;2023-06-14T11:33:58;2.33;;;1.80;;
15295;SDS011;7749;49.964;7.890;2023-06-14T11:36:27;1.80;;;1.70;;
15295;SDS011;7749;49.964;7.890;2023-06-14T11:38:58;2.72;;;1.90;;
15295;SDS011;7749;49.964;7.890;2023-06-14T11:41:31;1.83;;;1.70;;
15295;SDS011;7749;49.964;7.890;2023-06-14T11:44:00;5.80;;;2.28;;
15295;SDS011;7749;49.964;7.890;2023-06-14T11:46:29;3.60;;;1.73;;
15295;SDS011;7749;49.964;7.890;2023-06-14T11:48:57;2.63;;;1.80;;
15295;SDS011;7749;49.964;7.890;2023-06-14T11:51:25;2.10;;;1.90;;
15295;SDS011;7749;49.964;7.890;2023-06-14T11:53:52;2.47;;;2.28;;
15295;SDS011;7749;49.964;7.890;2023-06-14T11:56:20;4.20;;;2.70;;
15295;SDS011;7749;49.964;7.890;2023-06-14T11:58:48;3.35;;;2.53;;
15295;SDS011;7749;49.964;7.890;2023-06-14T12:01:18;3.38;;;2.38;;
15295;SDS011;7749;49.964;7.890;2023-06-14T12:03:49;2.97;;;2.38;;
15295;SDS011;7749;49.964;7.890;2023-06-14T12:06:25;4.35;;;2.72;;
15295;SDS011;7749;49.964;7.890;2023-06-14T12:08:56;2.38;;;2.15;;
15295;SDS011;7749;49.964;7.890;2023-06-14T12:11:24;2.70;;;2.50;;
15295;SDS011;7749;49.964;7.890;2023-06-14T12:13:58;3.75;;;2.58;;
15295;SDS011;7749;49.964;7.890;2023-06-14T12:16:34;2.58;;;2.35;;
15295;SDS011;7749;49.964;7.890;2023-06-14T12:19:08;3.08;;;2.00;;
15295;SDS011;7749;49.964;7.890;2023-06-14T12:21:39;4.03;;;2.50;;
15295;SDS011;7749;49.964;7.890;2023-06-14T12:24:08;4.03;;;1.98;;
15295;SDS011;7749;49.964;7.890;2023-06-14T12:26:39;6.50;;;2.42;;
15295;SDS011;7749;49.964;7.890;2023-06-14T12:29:08;2.75;;;2.38;;
15295;SDS011;7749;49.964;7.890;2023-06-14T12:31:35;2.60;;;2.40;;
15295;SDS011;7749;49.964;7.890;2023-06-14T12:34:03;4.90;;;2.53;;
15295;SDS011;7749;49.964;7.890;2023-06-14T12:36:31;3.78;;;2.30;;
15295;SDS011;7749;49.964;7.890;2023-06-14T12:38:59;2.20;;;2.00;;
15295;SDS011;7749;49.964;7.890;2023-06-14T12:41:26;3.35;;;2.55;;
15295;SDS011;7749;49.964;7.890;2023-06-14T12:43:54;2.22;;;2.00;;
15295;SDS011;7749;49.964;7.890;2023-06-14T12:46:24;2.95;;;2.70;;
15295;SDS011;7749;49.964;7.890;2023-06-14T12:48:52;3.05;;;2.83;;
15295;SDS011;7749;49.964;7.890;2023-06-14T12:51:20;3.83;;;2.65;;
15295;SDS011;7749;49.964;7.890;2023-06-14T12:53:47;3.75;;;2.30;;
15295;SDS011;7749;49.964;7.890;2023-06-14T12:56:15;4.72;;;2.30;;
15295;SDS011;7749;49.964;7.890;2023-06-14T12:58:43;4.75;;;2.67;;
15295;SDS011;7749;49.964;7.890;2023-06-14T13:01:10;2.47;;;2.28;;
15295;SDS011;7749;49.964;7.890;2023-06-14T13:03:38;2.75;;;2.15;;
15295;SDS011;7749;49.964;7.890;2023-06-14T13:06:06;2.40;;;2.20;;
15295;SDS011;7749;49.964;7.890;2023-06-14T13:08:33;2.53;;;2.33;;
15295;SDS011;7749;49.964;7.890;2023-06-14T13:11:01;2.75;;;2.10;;
15295;SDS011;7749;49.964;7.890;2023-06-14T13:13:28;2.50;;;2.28;;
15295;SDS011;7749;49.964;7.890;2023-06-14T13:15:56;3.17;;;2.60;;
15295;SDS011;7749;49.964;7.890;2023-06-14T13:18:23;2.45;;;2.22;;
15295;SDS011;7749;49.964;7.890;2023-06-14T13:20:51;2.30;;;2.10;;
15295;SDS011;7749;49.964;7.890;2023-06-14T13:23:18;2.80;;;2.17;;
15295;SDS011;7749;49.964;7.890;2023-06-14T13:28:49;2.67;;;2.30;;
15295;SDS011;7749;49.964;7.890;2023-06-14T13:31:18;2.53;;;2.00;;
15295;SDS011;7749;49.964;7.890;2023-06-14T13:33:45;5.38;;;2.60;;
15295;SDS011;7749;49.964;7.890;2023-06-14T13:36:13;2.10;;;1.90;;
15295;SDS011;7749;49.964;7.890;2023-06-14T13:38:41;3.05;;;2.20;;
15295;SDS011;7749;49.964;7.890;2023-06-14T13:41:08;6.53;;;2.50;;
15295;SDS011;7749;49.964;7.890;2023-06-14T13:43:36;4.38;;;2.30;;
15295;SDS011;7749;49.964;7.890;2023-06-14T13:46:03;2.63;;;2.30;;
15295;SDS011;7749;49.964;7.890;2023-06-14T13:48:31;2.15;;;1.95;;
15295;SDS011;7749;49.964;7.890;2023-06-14T13:51:01;5.05;;;2.40;;
15295;SDS011;7749;49.964;7.890;2023-06-14T13:53:31;3.97;;;2.20;;
15295;SDS011;7749;49.964;7.890;2023-06-14T13:55:58;2.35;;;2.10;;
15295;SDS011;7749;49.964;7.890;2023-06-14T13:58:26;3.20;;;2.17;;
15295;SDS011;7749;49.964;7.890;2023-06-14T14:00:53;2.92;;;2.13;;
15295;SDS011;7749;49.964;7.890;2023-06-14T14:03:21;3.30;;;2.40;;
15295;SDS011;7749;49.964;7.890;2023-06-14T14:05:49;2.90;;;2.70;;
15295;SDS011;7749;49.964;7.890;2023-06-14T14:08:16;6.40;;;2.90;;
15295;SDS011;7749;49.964;7.890;2023-06-14T14:10:44;3.55;;;2.80;;
15295;SDS011;7749;49.964;7.890;2023-06-14T14:13:12;3.17;;;2.78;;
15295;SDS011;7749;49.964;7.890;2023-06-14T14:15:39;3.90;;;2.78;;
15295;SDS011;7749;49.964;7.890;2023-06-14T14:18:07;4.80;;;3.13;;
15295;SDS011;7749;49.964;7.890;2023-06-14T14:20:35;2.88;;;2.65;;
15295;SDS011;7749;49.964;7.890;2023-06-14T14:23:02;4.65;;;2.45;;
15295;SDS011;7749;49.964;7.890;2023-06-14T14:25:30;3.05;;;2.58;;
15295;SDS011;7749;49.964;7.890;2023-06-14T14:27:57;3.60;;;2.58;;
15295;SDS011;7749;49.964;7.890;2023-06-14T14:30:25;2.63;;;2.40;;
15295;SDS011;7749;49.964;7.890;2023-06-14T14:32:53;2.38;;;2.17;;
15295;SDS011;7749;49.964;7.890;2023-06-14T14:35:21;2.97;;;2.42;;
15295;SDS011;7749;49.964;7.890;2023-06-14T14:37:52;3.65;;;2.50;;
15295;SDS011;7749;49.964;7.890;2023-06-14T14:40:21;3.28;;;2.30;;
15295;SDS011;7749;49.964;7.890;2023-06-14T14:42:49;3.05;;;2.33;;
15295;SDS011;7749;49.964;7.890;2023-06-14T14:45:17;2.67;;;2.47;;
15295;SDS011;7749;49.964;7.890;2023-06-14T14:47:44;2.63;;;2.42;;
15295;SDS011;7749;49.964;7.890;2023-06-14T14:50:12;2.90;;;2.70;;
15295;SDS011;7749;49.964;7.890;2023-06-14T14:52:40;2.78;;;2.58;;
15295;SDS011;7749;49.964;7.890;2023-06-14T14:55:07;2.67;;;2.47;;
15295;SDS011;7749;49.964;7.890;2023-06-14T14:57:35;2.88;;;2.60;;
15295;SDS011;7749;49.964;7.890;2023-06-14T15:00:03;2.40;;;2.20;;
15295;SDS011;7749;49.964;7.890;2023-06-14T15:02:32;5.13;;;3.25;;
15295;SDS011;7749;49.964;7.890;2023-06-14T15:05:00;3.22;;;2.75;;
15295;SDS011;7749;49.964;7.890;2023-06-14T15:07:32;2.55;;;2.45;;
15295;SDS011;7749;49.964;7.890;2023-06-14T15:10:01;4.13;;;2.75;;
15295;SDS011;7749;49.964;7.890;2023-06-14T15:12:29;3.30;;;3.00;;
15295;SDS011;7749;49.964;7.890;2023-06-14T15:14:57;6.30;;;3.67;;
15295;SDS011;7749;49.964;7.890;2023-06-14T15:17:24;3.17;;;2.88;;
15295;SDS011;7749;49.964;7.890;2023-06-14T15:19:52;8.05;;;3.58;;
15295;SDS011;7749;49.964;7.890;2023-06-14T15:22:19;3.67;;;2.22;;
15295;SDS011;7749;49.964;7.890;2023-06-14T15:24:47;4.15;;;2.00;;
15295;SDS011;7749;49.964;7.890;2023-06-14T15:27:16;4.47;;;2.58;;
15295;SDS011;7749;49.964;7.890;2023-06-14T15:29:44;3.78;;;3.42;;
15295;SDS011;7749;49.964;7.890;2023-06-14T15:32:15;4.55;;;3.30;;
15295;SDS011;7749;49.964;7.890;2023-06-14T15:34:43;5.68;;;2.92;;
15295;SDS011;7749;49.964;7.890;2023-06-14T15:37:10;3.40;;;3.10;;
15295;SDS011;7749;49.964;7.890;2023-06-14T15:39:38;3.15;;;2.85;;
15295;SDS011;7749;49.964;7.890;2023-06-14T15:42:05;3.35;;;3.05;;
15295;SDS011;7749;49.964;7.890;2023-06-14T15:44:34;3.47;;;2.95;;
15295;SDS011;7749;49.964;7.890;2023-06-14T15:47:03;3.38;;;2.80;;
15295;SDS011;7749;49.964;7.890;2023-06-14T15:49:30;3.97;;;2.80;;